Central Valley One Loft Race - Training Test

Station: Tengner Rd - T Race

Distance: 1 Miles

Release: 31-Jul-2020 06:45

Weather Release:    Arrival:

Wind at Release:     Wind at Arrival:

Temp at Release: °    Temp at Arrival: °

Lofts: 93

Birds: 378

Clocked: 376

Good Luck to Everyone!
Drops Pos Breeder Pigeon Name Color Sex Ent Arrival Speed To Win Elg PdAOC
1 Joe Jauhal - CA 0111-AU20-JEDD BC H 1 08:02:17.10 22.773 00:00:00 Yes
2 Milpillas Loft - CA 0065-AU20-WSJ BBWF H 1 08:02:17.60 22.770 00:00:01 Yes
3 Guero Capilla Loft - CA 16118-AU20-JEDD BC C 1 08:02:18.00 22.768 00:00:01 Yes
4 Paredes Loft - CA 16167-AU20-JEDD BB H 1 08:02:19.40 22.762 00:00:02 Yes
5 Mexicubas Loft - CO 3035-AU20-HRPB BB C 1 08:02:19.80 22.760 00:00:03 Yes
6 John Karnofel - CA 0211-AU20-KFL Salinas Sweetheart BBWF H 1 08:02:20.40 22.757 00:00:03 Yes
7 Aceves-Cbc - CA 5609-AU20-AA BB H 1 08:02:20.80 22.755 00:00:04 Yes
8 Whiskey Hollow Loft - TX 0003-AU20-WACO BC H 1 08:02:21.10 22.753 00:00:04 Yes
9 Gerry Martin Loft - CA 3225-AU20-CHP Silver Lady RB H 1 08:02:21.60 22.751 00:00:04 Yes
9 Liang Loft - CA 0709-AU20-ARPU BC C 1 08:02:21.60 22.751 00:00:04 Yes
11 Ismael Franco - CA 0304-AU20-BPRC BB H 1 08:02:22.10 22.748 00:00:05 Yes
12 Armando Lopez Loft - CA 4000-AU20-CHP BC C 1 08:02:22.70 22.745 00:00:06 Yes
12 Chicas Ruiz Loft - NV 0342-AU20-RENO BC C 1 08:02:22.70 22.745 00:00:06 Yes
14 Sky Charger Loft 2 - CA 16948-AU20-JEDD BB H 1 08:02:23.20 22.743 00:00:06 Yes
15 Pellizzari Loft - CA 1018-AU20-WSJ DC H 1 08:02:23.70 22.740 00:00:07 Yes
16 Nevarez Loft - CA 0222-AU20-NEVA BB H 1 08:02:24.00 22.739 00:00:07 Yes
17 Blue Sky Loft 2 - CA 0082-AU20-BLUE BB C 1 08:02:24.60 22.736 00:00:08 Yes
17 Sparks Trio Syn 2 - NV 0315-AU20-RENO BLK C 1 08:02:24.60 22.736 00:00:08 Yes
19 Iron 377 - CA 0604-AU20-WSJ BB H 1 08:02:24.90 22.735 00:00:08 Yes
19 Sparks Trio Syn 2 - NV 0324-AU20-RENO BB H 2 08:02:24.90 22.735 00:00:08 Yes
21 Liang Loft - CA 0702-AU20-ARPU BB H 2 08:02:25.40 22.732 00:00:08 Yes
21 Oddballs - CA 2225-AU20-FVC BCSP C 1 08:02:25.40 22.732 00:00:08 Yes
23 Bako Boy's - CA 0218-AU20-BAK RB C 1 08:02:26.00 22.729 00:00:09 Yes
23 Capistrano Loft - FL 13403-AU20-ARPU Mukuro BB C 1 08:02:26.00 22.729 00:00:09 Yes
23 Watts Racing - CA 2671-AU20-VITA Wolfman Jack BB C 1 08:02:26.10 22.729 00:00:09 Yes
26 Sparks Trio Syn 2 - NV 0332-AU20-RENO DC H 3 08:02:27.00 22.724 00:00:10 Yes
27 Joe Jauhal - CA 0145-AU20-JEDD BC C 2 08:02:27.60 22.721 00:00:11 Yes
28 Gomez & Martin Loft - CA 3020-AU20-FORT BB C 1 08:02:27.90 22.720 00:00:11 Yes
29 Nevarez Loft - CA 0215-AU20-NEVA BC C 2 08:02:28.40 22.717 00:00:11 Yes
30 Armando Lopez Loft - CA 3979-AU20-CHP BCWF H 2 08:02:29.20 22.714 00:00:12 Yes
31 Leovis Loft - CA 103869-MX20-FMC BC H 1 08:02:29.70 22.711 00:00:13 Yes
32 Hernandes Loft - CA 28207-AU20-JEDD SL H 1 08:02:30.70 22.706 00:00:14 Yes
33 Hernandes Loft - CA 28206-AU20-JEDD BB H 2 08:02:31.30 22.703 00:00:14 Yes
34 Jose Reyes Loft - CA 16165-AU20-JEDD RB C 1 08:02:32.70 22.696 00:00:16 Yes
35 Leovis Loft - CA 103857-MX20-FMC BC H 2 08:02:33.70 22.692 00:00:17 Yes
36 Fco Avalos Loft - CA 1509-AU20-TULE BC C 1 08:02:34.10 22.690 00:00:17 Yes
37 Bieche-Stevenson - CA 0189-AU20-BIEC BC C 1 08:02:34.20 22.689 00:00:17 Yes
38 Kereru Whare - CA 1195-AU20-FORT RB C 1 08:02:34.50 22.688 00:00:17 Yes
39 Machos Loft - NV 1930-AU20-MACH BC H 1 08:02:35.60 22.682 00:00:19 Yes
40 Pablo Larios & Rafael Reyes - CA 2855-AU20-FORT BB C 1 08:02:36.20 22.679 00:00:19 Yes
41 Vaz Loft - CA 0387-AU20-SEL GRSP H 1 08:02:38.90 22.666 00:00:22 Yes
42 Halbritter Loft - CA 22382-AU20-JEDD BB H 1 08:02:39.60 22.663 00:00:23 Yes
42 America Loft - IN 0420-AU20-AMER 420. 93 sandoval BB H 1 08:02:39.60 22.663 00:00:23 Yes
44 Ganzo Loft - CA 16114-AU20-JEDD BC H 1 08:02:39.90 22.661 00:00:23 Yes
45 Joe Jauhal - CA 0125-AU20-JEDD DC H 3 08:02:40.30 22.659 00:00:23 Yes
46 Iron 377 - CA 0610-AU20-WSJ BB H 2 08:02:41.10 22.656 00:00:24 Yes
47 Capistrano Loft - FL 13408-AU20-ARPU KOBE BB H 2 08:02:41.40 22.654 00:00:24 Yes
48 Fernando Loft - CA 0366-AU20-CCU BBSP C 1 08:02:42.00 22.651 00:00:25 Yes
49 Iron 377 - CA 0612-AU20-WSJ BB H 3 08:02:44.30 22.640 00:00:27 Yes
50 Oddballs - CA 2201-AU20-FVC BB C 2 08:02:44.70 22.638 00:00:28 Yes
51 Chop Loft - CA 16101-AU20-JEDD GRIZ C 1 08:02:45.00 22.637 00:00:28 Yes
52 H Padilla & Beto Martin Loft - CA 0715-AU20-MTZ BC H 1 08:02:45.60 22.634 00:00:28 Yes
53 Sparks Trio Syn 2 - NV 0100-AU20-RENO BB C 4 08:02:45.70 22.633 00:00:29 Yes
54 Gold Star Loft - CA 1707-AU20-STON BB H 1 08:02:46.20 22.631 00:00:29 Yes
55 Nevarez Loft - CA 0224-AU20-NEVA BB C 3 08:02:46.50 22.629 00:00:30 Yes
56 Jesus Torres - CA 1401-AU20-WSJ BB C 1 08:02:47.00 22.627 00:00:30 Yes
57 House Of Paine - CA 0235-AU20-HOUS BB H 1 08:02:47.30 22.626 00:00:30 Yes
58 Iron 377 - CA 0860-AU20-WSJ BLK H 4 08:02:47.90 22.623 00:00:31 Yes
59 Liang Loft - CA 0701-AU20-ARPU BB C 3 08:02:49.10 22.617 00:00:32 Yes
60 Gomez & Martin Loft - CA 3021-AU20-FORT BC H 2 08:02:49.70 22.614 00:00:33 Yes
61 Garlic City - CA 2490-AU20-WSJ BB C 1 08:02:50.30 22.611 00:00:33 Yes
62 Loft Ramx4 - CA 0099-AU20-CVC Saori BC H 1 08:02:51.10 22.607 00:00:34 Yes
63 Texas Holiday Derby - TX 0728-AU20-NSL 1110 x 75443 BB H 1 08:02:51.70 22.604 00:00:35 Yes
64 Palomar Goyo Y Nin - CO 0045-AU20-NIN BB H 1 08:02:52.00 22.603 00:00:35 Yes
64 Machos Loft - NV 1940-AU20-MACH BBSP H 2 08:02:52.00 22.603 00:00:35 Yes
66 Watts Racing - CA 2687-AU20-VITA Mr. Majestic RB C 2 08:02:52.40 22.601 00:00:35 Yes
67 Alvigar Loft - CA 17832-AU20-JEDD POTE BB C 1 08:02:52.50 22.600 00:00:35 Yes
68 Machos Loft - NV 1931-AU20-MACH BC C 3 08:02:53.10 22.597 00:00:36 Yes
69 Texas Holiday Derby - TX 0730-AU20-NSL 507-681 x 4324 BBSP C 2 08:02:53.50 22.595 00:00:37 Yes
70 Bieche-Stevenson - CA 0146-AU20-BIEC RED C 2 08:02:53.80 22.594 00:00:37 Yes
71 Sooner Challenge - OK 40122-AU20-ARPU 7276 x 8546 BB C 1 08:02:54.80 22.589 00:00:38 Yes
72 Nevarez Loft - CA 0218-AU20-NEVA BC C 4 08:02:55.70 22.585 00:00:39 Yes
73 Bob Niemeyer - CA 1006-AU20-AUB BC C 1 08:02:55.80 22.584 00:00:39 Yes
73 Sooner Challenge - OK 40103-AU20-ARPU 208 x 1360 BC H 2 08:02:55.80 22.584 00:00:39 Yes
75 My Destiney Loft - CA 2085-AU20-MRGU BB C 1 08:02:56.20 22.582 00:00:39 Yes
76 Watts Racing - CA 2672-AU20-VITA Honey Buns BC H 3 08:02:56.50 22.581 00:00:39 Yes
77 Mexicubas Loft - CO 0018-AU20-CHEC BC H 2 08:02:57.10 22.578 00:00:40 Yes
78 Bieche-Stevenson - CA 0228-AU20-BIEC BCSP H 3 08:02:58.40 22.572 00:00:41 Yes
79 Aceves-Cbc - CA 5626-AU20-AA BBWF H 2 08:02:58.70 22.570 00:00:42 Yes
80 Luiz Flores Family Loft - NV 0025-AU20-MUER BB H 1 08:03:00.80 22.560 00:00:44 Yes
81 Josjim Loft - CA 20080-AU20-LAKE RC H 1 08:03:02.50 22.552 00:00:45 Yes
82 Vaz Loft - CA 0386-AU20-SEL BBSP H 2 08:03:03.70 22.546 00:00:47 Yes
83 Loft Ramx4 - CA 17103-AU20-AA April BCSP H 2 08:03:04.00 22.545 00:00:47 Yes
84 Balderas Lof - CA 3603-AU20-CHP BBSP C 1 08:03:04.50 22.542 00:00:48 Yes
85 Josjim Loft - CA 20100-AU20-LAKE BC C 2 08:03:05.10 22.540 00:00:48 Yes
86 Nevarez Loft - CA 0217-AU20-NEVA BBWF H 5 08:03:05.60 22.537 00:00:49 Yes
87 Luiz Flores Family Loft - NV 0007-AU20-MUER DC C 2 08:03:07.00 22.530 00:00:50 Yes
88 Capistrano Loft - FL 13410-AU20-ARPU Aira Gee BB H 3 08:03:07.20 22.529 00:00:50 Yes
89 Carlos Vasquez - 1905-AU20-BAK BB C 1 08:03:08.40 22.524 00:00:51 Yes
90 Osty Loft - CA 5578-AU20-FOYS BC H 1 08:03:08.70 22.522 00:00:52 Yes
90 Vaz Loft - CA 0393-AU20-SEL BBSP C 3 08:03:08.70 22.522 00:00:52 Yes
92 Halbritter Loft - CA 22404-AU20-JEDD BC C 2 08:03:09.20 22.520 00:00:52 Yes
93 Ganzo Loft - CA 16113-AU20-JEDD RB H 2 08:03:09.60 22.518 00:00:53 Yes
93 Gold Star Loft - CA 1736-AU20-STON BB C 2 08:03:09.60 22.518 00:00:53 Yes
95 Padis Tanus Loft - CA 29856-AU20-JEDD BBWF H 1 08:03:09.70 22.517 00:00:53 Yes
96 Gerry Martin Loft - CA 3245-AU20-CHP Apollo 2020 BB C 2 08:03:10.80 22.512 00:00:54 Yes
97 Balderas Lof - CA 3602-AU20-CHP BB C 2 08:03:11.10 22.511 00:00:54 Yes
98 Chop Loft - CA 16123-AU20-JEDD RB C 2 08:03:11.60 22.508 00:00:55 Yes
98 Juan Rivas Loft - CA 3087-AU20-CHP BC C 1 08:03:11.70 22.508 00:00:55 Yes
100 House Of Paine - CA 0251-AU20-HOUS BC C 2 08:03:12.20 22.505 00:00:55 Yes

There are 427 bird records

Note: These Race Results are unofficial and subject to change until verified by the Race Committee and declared final.